sensor_id;sensor_type;location;lat;lon;timestamp;temperature;humidity
15359;DHT22;7779;49.596;11.070;2022-07-05T00:00:46;19.90;47.30
15359;DHT22;7779;49.596;11.070;2022-07-05T00:03:12;19.80;47.30
15359;DHT22;7779;49.596;11.070;2022-07-05T00:05:39;19.80;47.40
15359;DHT22;7779;49.596;11.070;2022-07-05T00:08:06;19.70;47.40
15359;DHT22;7779;49.596;11.070;2022-07-05T00:10:35;19.60;47.40
15359;DHT22;7779;49.596;11.070;2022-07-05T00:13:03;19.60;47.50
15359;DHT22;7779;49.596;11.070;2022-07-05T00:15:30;19.60;47.70
15359;DHT22;7779;49.596;11.070;2022-07-05T00:17:56;19.50;47.70
15359;DHT22;7779;49.596;11.070;2022-07-05T00:20:21;19.40;47.80
15359;DHT22;7779;49.596;11.070;2022-07-05T00:22:47;19.40;48.00
15359;DHT22;7779;49.596;11.070;2022-07-05T00:25:13;19.30;48.10
15359;DHT22;7779;49.596;11.070;2022-07-05T00:27:40;19.30;48.30
15359;DHT22;7779;49.596;11.070;2022-07-05T00:30:06;19.20;48.40
15359;DHT22;7779;49.596;11.070;2022-07-05T00:32:34;19.20;48.60
15359;DHT22;7779;49.596;11.070;2022-07-05T00:34:59;19.10;48.70
15359;DHT22;7779;49.596;11.070;2022-07-05T00:37:25;19.00;48.70
15359;DHT22;7779;49.596;11.070;2022-07-05T00:39:51;19.00;48.90
15359;DHT22;7779;49.596;11.070;2022-07-05T00:42:17;18.90;49.10
15359;DHT22;7779;49.596;11.070;2022-07-05T00:44:43;18.90;49.30
15359;DHT22;7779;49.596;11.070;2022-07-05T00:47:11;18.80;49.30
15359;DHT22;7779;49.596;11.070;2022-07-05T00:49:38;18.80;49.50
15359;DHT22;7779;49.596;11.070;2022-07-05T00:52:05;18.70;49.50
15359;DHT22;7779;49.596;11.070;2022-07-05T00:54:34;18.60;49.50
15359;DHT22;7779;49.596;11.070;2022-07-05T00:57:02;18.60;49.70
15359;DHT22;7779;49.596;11.070;2022-07-05T00:59:29;18.50;49.80
15359;DHT22;7779;49.596;11.070;2022-07-05T01:01:56;18.50;49.90
15359;DHT22;7779;49.596;11.070;2022-07-05T01:04:22;18.40;50.60
15359;DHT22;7779;49.596;11.070;2022-07-05T01:06:50;18.40;50.10
15359;DHT22;7779;49.596;11.070;2022-07-05T01:09:18;18.30;50.10
15359;DHT22;7779;49.596;11.070;2022-07-05T01:11:46;18.20;50.20
15359;DHT22;7779;49.596;11.070;2022-07-05T01:14:16;18.20;50.30
15359;DHT22;7779;49.596;11.070;2022-07-05T01:16:44;18.20;50.40
15359;DHT22;7779;49.596;11.070;2022-07-05T01:19:11;19.10;51.20
15359;DHT22;7779;49.596;11.070;2022-07-05T01:21:43;18.00;50.50
15359;DHT22;7779;49.596;11.070;2022-07-05T01:24:11;18.00;50.70
15359;DHT22;7779;49.596;11.070;2022-07-05T01:26:39;17.90;50.80
15359;DHT22;7779;49.596;11.070;2022-07-05T01:29:07;17.90;50.80
15359;DHT22;7779;49.596;11.070;2022-07-05T01:31:37;17.80;50.90
15359;DHT22;7779;49.596;11.070;2022-07-05T01:34:07;17.80;51.20
15359;DHT22;7779;49.596;11.070;2022-07-05T01:36:34;17.70;51.10
15359;DHT22;7779;49.596;11.070;2022-07-05T01:39:05;17.70;51.20
15359;DHT22;7779;49.596;11.070;2022-07-05T01:41:32;17.60;51.20
15359;DHT22;7779;49.596;11.070;2022-07-05T01:43:59;17.60;51.30
15359;DHT22;7779;49.596;11.070;2022-07-05T01:46:26;17.50;51.40
15359;DHT22;7779;49.596;11.070;2022-07-05T01:49:03;17.40;51.90
15359;DHT22;7779;49.596;11.070;2022-07-05T01:51:40;17.40;51.70
15359;DHT22;7779;49.596;11.070;2022-07-05T01:54:11;17.30;52.60
15359;DHT22;7779;49.596;11.070;2022-07-05T01:56:37;17.30;51.70
15359;DHT22;7779;49.596;11.070;2022-07-05T01:59:04;17.20;51.80
15359;DHT22;7779;49.596;11.070;2022-07-05T02:01:36;17.10;51.80
15359;DHT22;7779;49.596;11.070;2022-07-05T02:04:09;17.10;51.90
15359;DHT22;7779;49.596;11.070;2022-07-05T02:06:36;17.00;51.80
15359;DHT22;7779;49.596;11.070;2022-07-05T02:09:05;16.90;51.80
15359;DHT22;7779;49.596;11.070;2022-07-05T02:11:33;16.90;51.90
15359;DHT22;7779;49.596;11.070;2022-07-05T02:13:59;16.80;52.20
15359;DHT22;7779;49.596;11.070;2022-07-05T02:16:29;16.70;52.00
15359;DHT22;7779;49.596;11.070;2022-07-05T02:18:56;16.60;51.90
15359;DHT22;7779;49.596;11.070;2022-07-05T02:21:23;16.60;52.10
15359;DHT22;7779;49.596;11.070;2022-07-05T02:23:51;16.50;52.10
15359;DHT22;7779;49.596;11.070;2022-07-05T02:26:18;16.50;52.50
15359;DHT22;7779;49.596;11.070;2022-07-05T02:28:45;16.40;52.20
15359;DHT22;7779;49.596;11.070;2022-07-05T02:31:13;16.30;52.30
15359;DHT22;7779;49.596;11.070;2022-07-05T02:33:40;16.30;52.40
15359;DHT22;7779;49.596;11.070;2022-07-05T02:36:10;16.20;52.40
15359;DHT22;7779;49.596;11.070;2022-07-05T02:38:39;16.20;53.00
15359;DHT22;7779;49.596;11.070;2022-07-05T02:41:09;16.10;52.70
15359;DHT22;7779;49.596;11.070;2022-07-05T02:43:39;16.10;52.90
15359;DHT22;7779;49.596;11.070;2022-07-05T02:46:07;16.00;52.90
15359;DHT22;7779;49.596;11.070;2022-07-05T02:48:35;16.00;53.00
15359;DHT22;7779;49.596;11.070;2022-07-05T02:51:03;15.90;53.00
15359;DHT22;7779;49.596;11.070;2022-07-05T02:53:30;15.80;54.00
15359;DHT22;7779;49.596;11.070;2022-07-05T02:55:58;15.80;53.10
15359;DHT22;7779;49.596;11.070;2022-07-05T02:58:24;15.80;53.20
15359;DHT22;7779;49.596;11.070;2022-07-05T03:00:51;15.70;53.30
15359;DHT22;7779;49.596;11.070;2022-07-05T03:03:20;15.70;53.50
15359;DHT22;7779;49.596;11.070;2022-07-05T03:05:46;15.60;53.50
15359;DHT22;7779;49.596;11.070;2022-07-05T03:08:12;15.60;53.40
15359;DHT22;7779;49.596;11.070;2022-07-05T03:10:40;15.50;53.50
15359;DHT22;7779;49.596;11.070;2022-07-05T03:13:06;15.40;53.50
15359;DHT22;7779;49.596;11.070;2022-07-05T03:15:32;15.40;53.60
15359;DHT22;7779;49.596;11.070;2022-07-05T03:18:00;15.40;53.70
15359;DHT22;7779;49.596;11.070;2022-07-05T03:20:29;15.30;53.70
15359;DHT22;7779;49.596;11.070;2022-07-05T03:22:55;15.30;53.80
15359;DHT22;7779;49.596;11.070;2022-07-05T03:25:28;15.20;53.80
15359;DHT22;7779;49.596;11.070;2022-07-05T03:27:54;15.20;53.90
15359;DHT22;7779;49.596;11.070;2022-07-05T03:30:20;15.20;54.10
15359;DHT22;7779;49.596;11.070;2022-07-05T03:32:47;15.20;54.20
15359;DHT22;7779;49.596;11.070;2022-07-05T03:35:13;15.10;54.20
15359;DHT22;7779;49.596;11.070;2022-07-05T03:37:39;15.10;54.30
15359;DHT22;7779;49.596;11.070;2022-07-05T03:40:05;15.10;54.40
15359;DHT22;7779;49.596;11.070;2022-07-05T03:42:31;15.00;54.40
15359;DHT22;7779;49.596;11.070;2022-07-05T03:44:58;15.00;54.60
15359;DHT22;7779;49.596;11.070;2022-07-05T03:47:24;15.00;54.70
15359;DHT22;7779;49.596;11.070;2022-07-05T03:49:50;15.00;54.80
15359;DHT22;7779;49.596;11.070;2022-07-05T03:52:16;15.00;55.10
15359;DHT22;7779;49.596;11.070;2022-07-05T03:54:42;15.00;55.60
15359;DHT22;7779;49.596;11.070;2022-07-05T03:57:11;15.10;55.90
15359;DHT22;7779;49.596;11.070;2022-07-05T03:59:39;15.20;55.90
15359;DHT22;7779;49.596;11.070;2022-07-05T04:02:05;15.30;55.90
15359;DHT22;7779;49.596;11.070;2022-07-05T04:04:33;15.30;55.80
15359;DHT22;7779;49.596;11.070;2022-07-05T04:06:59;15.30;55.70
15359;DHT22;7779;49.596;11.070;2022-07-05T04:09:26;15.40;55.60
15359;DHT22;7779;49.596;11.070;2022-07-05T04:11:52;15.40;55.60
15359;DHT22;7779;49.596;11.070;2022-07-05T04:14:18;15.40;55.50
15359;DHT22;7779;49.596;11.070;2022-07-05T04:16:44;15.40;55.50
15359;DHT22;7779;49.596;11.070;2022-07-05T04:19:10;15.40;55.50
15359;DHT22;7779;49.596;11.070;2022-07-05T04:21:37;15.40;55.50
15359;DHT22;7779;49.596;11.070;2022-07-05T04:24:03;15.40;55.50
15359;DHT22;7779;49.596;11.070;2022-07-05T04:26:29;15.40;55.60
15359;DHT22;7779;49.596;11.070;2022-07-05T04:28:55;15.40;55.60
15359;DHT22;7779;49.596;11.070;2022-07-05T04:31:25;15.40;55.70
15359;DHT22;7779;49.596;11.070;2022-07-05T04:33:54;15.40;56.40
15359;DHT22;7779;49.596;11.070;2022-07-05T04:36:23;15.50;56.10
15359;DHT22;7779;49.596;11.070;2022-07-05T04:38:53;15.50;56.40
15359;DHT22;7779;49.596;11.070;2022-07-05T04:41:20;15.60;57.10
15359;DHT22;7779;49.596;11.070;2022-07-05T04:43:46;15.80;57.80
15359;DHT22;7779;49.596;11.070;2022-07-05T04:46:13;16.00;57.70
15359;DHT22;7779;49.596;11.070;2022-07-05T04:48:39;16.30;58.60
15359;DHT22;7779;49.596;11.070;2022-07-05T04:51:07;16.60;58.80
15359;DHT22;7779;49.596;11.070;2022-07-05T04:53:34;16.90;58.70
15359;DHT22;7779;49.596;11.070;2022-07-05T04:55:59;17.20;58.30
15359;DHT22;7779;49.596;11.070;2022-07-05T04:58:26;17.40;58.60
15359;DHT22;7779;49.596;11.070;2022-07-05T05:00:52;17.70;57.90
15359;DHT22;7779;49.596;11.070;2022-07-05T05:03:17;18.00;58.10
15359;DHT22;7779;49.596;11.070;2022-07-05T05:05:44;18.30;58.10
15359;DHT22;7779;49.596;11.070;2022-07-05T05:08:10;18.60;58.00
15359;DHT22;7779;49.596;11.070;2022-07-05T05:10:36;18.90;57.70
15359;DHT22;7779;49.596;11.070;2022-07-05T05:13:02;19.20;57.40
15359;DHT22;7779;49.596;11.070;2022-07-05T05:15:27;19.50;57.10
15359;DHT22;7779;49.596;11.070;2022-07-05T05:17:53;19.70;56.60
15359;DHT22;7779;49.596;11.070;2022-07-05T05:20:19;20.00;56.10
15359;DHT22;7779;49.596;11.070;2022-07-05T05:22:46;20.20;55.60
15359;DHT22;7779;49.596;11.070;2022-07-05T05:25:12;20.40;56.00
15359;DHT22;7779;49.596;11.070;2022-07-05T05:27:47;20.60;55.10
15359;DHT22;7779;49.596;11.070;2022-07-05T05:30:16;20.80;54.80
15359;DHT22;7779;49.596;11.070;2022-07-05T05:32:43;21.10;54.00
15359;DHT22;7779;49.596;11.070;2022-07-05T05:35:09;21.30;54.80
15359;DHT22;7779;49.596;11.070;2022-07-05T05:37:54;21.50;55.20
15359;DHT22;7779;49.596;11.070;2022-07-05T05:40:22;21.60;53.80
15359;DHT22;7779;49.596;11.070;2022-07-05T05:42:50;21.90;53.90
15359;DHT22;7779;49.596;11.070;2022-07-05T05:45:17;22.10;53.60
15359;DHT22;7779;49.596;11.070;2022-07-05T05:47:49;22.30;53.40
15359;DHT22;7779;49.596;11.070;2022-07-05T05:50:19;22.40;52.80
15359;DHT22;7779;49.596;11.070;2022-07-05T05:52:48;22.60;52.80
15359;DHT22;7779;49.596;11.070;2022-07-05T05:55:15;22.70;52.60
15359;DHT22;7779;49.596;11.070;2022-07-05T05:57:41;22.90;52.40
15359;DHT22;7779;49.596;11.070;2022-07-05T06:00:08;23.00;52.20
15359;DHT22;7779;49.596;11.070;2022-07-05T06:02:39;23.20;51.90
15359;DHT22;7779;49.596;11.070;2022-07-05T06:05:05;23.40;51.60
15359;DHT22;7779;49.596;11.070;2022-07-05T06:07:49;23.50;51.30
15359;DHT22;7779;49.596;11.070;2022-07-05T06:10:30;23.60;50.60
15359;DHT22;7779;49.596;11.070;2022-07-05T06:13:00;23.80;50.30
15359;DHT22;7779;49.596;11.070;2022-07-05T06:15:28;23.90;50.60
15359;DHT22;7779;49.596;11.070;2022-07-05T06:17:54;24.10;50.50
15359;DHT22;7779;49.596;11.070;2022-07-05T06:20:23;24.20;50.20
15359;DHT22;7779;49.596;11.070;2022-07-05T06:22:50;24.40;50.50
15359;DHT22;7779;49.596;11.070;2022-07-05T06:25:17;24.50;49.60
15359;DHT22;7779;49.596;11.070;2022-07-05T06:27:46;24.60;49.40
15359;DHT22;7779;49.596;11.070;2022-07-05T06:30:15;24.70;49.00
15359;DHT22;7779;49.596;11.070;2022-07-05T06:32:43;24.90;48.90
15359;DHT22;7779;49.596;11.070;2022-07-05T06:35:11;25.00;49.10
15359;DHT22;7779;49.596;11.070;2022-07-05T06:37:50;25.20;48.60
15359;DHT22;7779;49.596;11.070;2022-07-05T06:40:31;25.30;47.50
15359;DHT22;7779;49.596;11.070;2022-07-05T06:43:00;25.50;47.20
15359;DHT22;7779;49.596;11.070;2022-07-05T06:45:38;25.60;47.00
15359;DHT22;7779;49.596;11.070;2022-07-05T06:48:09;25.70;46.70
15359;DHT22;7779;49.596;11.070;2022-07-05T06:50:38;25.90;46.70
15359;DHT22;7779;49.596;11.070;2022-07-05T06:53:06;26.00;46.20
15359;DHT22;7779;49.596;11.070;2022-07-05T06:55:32;26.10;46.70
15359;DHT22;7779;49.596;11.070;2022-07-05T06:58:03;26.20;45.90
15359;DHT22;7779;49.596;11.070;2022-07-05T07:00:30;26.30;45.70
15359;DHT22;7779;49.596;11.070;2022-07-05T07:02:57;26.40;45.50
15359;DHT22;7779;49.596;11.070;2022-07-05T07:05:24;26.50;45.30
15359;DHT22;7779;49.596;11.070;2022-07-05T07:07:50;26.50;45.10
15359;DHT22;7779;49.596;11.070;2022-07-05T07:10:35;26.60;45.00
15359;DHT22;7779;49.596;11.070;2022-07-05T07:13:01;26.70;44.90
15359;DHT22;7779;49.596;11.070;2022-07-05T07:15:30;26.80;44.90
15359;DHT22;7779;49.596;11.070;2022-07-05T07:17:57;26.80;44.60
15359;DHT22;7779;49.596;11.070;2022-07-05T07:20:23;26.90;45.20
15359;DHT22;7779;49.596;11.070;2022-07-05T07:22:49;27.00;44.70
15359;DHT22;7779;49.596;11.070;2022-07-05T07:25:15;27.00;44.60
15359;DHT22;7779;49.596;11.070;2022-07-05T07:27:50;27.10;44.60
15359;DHT22;7779;49.596;11.070;2022-07-05T07:30:25;27.20;43.60
15359;DHT22;7779;49.596;11.070;2022-07-05T07:32:53;27.30;43.60
15359;DHT22;7779;49.596;11.070;2022-07-05T07:35:20;27.30;44.10
15359;DHT22;7779;49.596;11.070;2022-07-05T07:37:46;27.40;44.00
15359;DHT22;7779;49.596;11.070;2022-07-05T07:40:12;27.40;43.80
15359;DHT22;7779;49.596;11.070;2022-07-05T07:42:39;27.50;43.00
15359;DHT22;7779;49.596;11.070;2022-07-05T07:45:05;27.50;43.40
15359;DHT22;7779;49.596;11.070;2022-07-05T07:47:32;27.60;43.40
15359;DHT22;7779;49.596;11.070;2022-07-05T07:49:59;27.60;43.40
15359;DHT22;7779;49.596;11.070;2022-07-05T07:52:26;27.70;43.30
15359;DHT22;7779;49.596;11.070;2022-07-05T07:54:51;27.70;43.20
15359;DHT22;7779;49.596;11.070;2022-07-05T07:57:17;27.80;43.20
15359;DHT22;7779;49.596;11.070;2022-07-05T07:59:44;27.90;43.10
15359;DHT22;7779;49.596;11.070;2022-07-05T08:02:10;28.00;43.60
15359;DHT22;7779;49.596;11.070;2022-07-05T08:04:36;28.10;42.90
15359;DHT22;7779;49.596;11.070;2022-07-05T08:07:02;28.10;42.70
15359;DHT22;7779;49.596;11.070;2022-07-05T08:09:29;28.20;42.60
15359;DHT22;7779;49.596;11.070;2022-07-05T08:11:56;28.30;42.40
15359;DHT22;7779;49.596;11.070;2022-07-05T08:14:22;28.30;42.40
15359;DHT22;7779;49.596;11.070;2022-07-05T08:16:49;28.40;42.40
15359;DHT22;7779;49.596;11.070;2022-07-05T08:19:16;28.40;42.30
15359;DHT22;7779;49.596;11.070;2022-07-05T08:22:00;28.50;42.00
15359;DHT22;7779;49.596;11.070;2022-07-05T08:24:27;28.60;41.70
15359;DHT22;7779;49.596;11.070;2022-07-05T08:26:54;28.60;41.40
15359;DHT22;7779;49.596;11.070;2022-07-05T08:29:19;28.70;41.10
15359;DHT22;7779;49.596;11.070;2022-07-05T08:31:48;28.70;41.60
15359;DHT22;7779;49.596;11.070;2022-07-05T08:34:16;28.70;40.40
15359;DHT22;7779;49.596;11.070;2022-07-05T08:36:45;28.80;40.20
15359;DHT22;7779;49.596;11.070;2022-07-05T08:39:13;28.80;40.00
15359;DHT22;7779;49.596;11.070;2022-07-05T08:41:41;28.80;39.90
15359;DHT22;7779;49.596;11.070;2022-07-05T08:44:09;28.90;38.80
15359;DHT22;7779;49.596;11.070;2022-07-05T08:46:39;28.90;39.60
15359;DHT22;7779;49.596;11.070;2022-07-05T08:49:09;28.90;39.00
15359;DHT22;7779;49.596;11.070;2022-07-05T08:51:39;29.00;38.80
15359;DHT22;7779;49.596;11.070;2022-07-05T08:54:08;29.00;37.20
15359;DHT22;7779;49.596;11.070;2022-07-05T08:56:38;29.00;38.50
15359;DHT22;7779;49.596;11.070;2022-07-05T08:59:06;29.00;38.40
15359;DHT22;7779;49.596;11.070;2022-07-05T09:01:33;29.00;38.50
15359;DHT22;7779;49.596;11.070;2022-07-05T09:04:03;29.00;38.50
15359;DHT22;7779;49.596;11.070;2022-07-05T09:06:32;29.10;38.40
15359;DHT22;7779;49.596;11.070;2022-07-05T09:09:02;29.10;38.60
15359;DHT22;7779;49.596;11.070;2022-07-05T09:11:39;29.20;37.80
15359;DHT22;7779;49.596;11.070;2022-07-05T09:14:17;29.10;36.80
15359;DHT22;7779;49.596;11.070;2022-07-05T09:16:48;29.10;37.80
15359;DHT22;7779;49.596;11.070;2022-07-05T09:19:14;29.00;36.90
15359;DHT22;7779;49.596;11.070;2022-07-05T09:21:40;28.90;36.80
15359;DHT22;7779;49.596;11.070;2022-07-05T09:24:08;28.80;36.70
15359;DHT22;7779;49.596;11.070;2022-07-05T09:26:37;28.80;37.00
15359;DHT22;7779;49.596;11.070;2022-07-05T09:29:10;28.70;37.20
15359;DHT22;7779;49.596;11.070;2022-07-05T09:31:40;28.70;37.30
15359;DHT22;7779;49.596;11.070;2022-07-05T09:34:12;28.80;37.40
15359;DHT22;7779;49.596;11.070;2022-07-05T09:36:59;28.80;36.90
15359;DHT22;7779;49.596;11.070;2022-07-05T09:42:21;29.00;37.20
15359;DHT22;7779;49.596;11.070;2022-07-05T09:44:53;29.10;35.80
15359;DHT22;7779;49.596;11.070;2022-07-05T09:47:27;29.20;36.80
15359;DHT22;7779;49.596;11.070;2022-07-05T09:49:55;29.30;37.00
15359;DHT22;7779;49.596;11.070;2022-07-05T09:52:27;29.30;37.00
15359;DHT22;7779;49.596;11.070;2022-07-05T09:55:04;29.40;36.50
15359;DHT22;7779;49.596;11.070;2022-07-05T09:57:39;29.50;36.30
15359;DHT22;7779;49.596;11.070;2022-07-05T10:00:13;29.50;35.60
15359;DHT22;7779;49.596;11.070;2022-07-05T10:02:48;29.50;35.40
15359;DHT22;7779;49.596;11.070;2022-07-05T10:05:23;29.50;35.30
15359;DHT22;7779;49.596;11.070;2022-07-05T10:07:52;29.50;35.60
15359;DHT22;7779;49.596;11.070;2022-07-05T10:10:24;29.60;35.80
15359;DHT22;7779;49.596;11.070;2022-07-05T10:13:04;29.60;35.50
15359;DHT22;7779;49.596;11.070;2022-07-05T10:15:35;29.60;34.80
15359;DHT22;7779;49.596;11.070;2022-07-05T10:18:15;29.70;35.50
15359;DHT22;7779;49.596;11.070;2022-07-05T10:20:49;29.70;35.00
15359;DHT22;7779;49.596;11.070;2022-07-05T10:23:19;29.80;35.00
15359;DHT22;7779;49.596;11.070;2022-07-05T10:25:49;29.70;34.60
15359;DHT22;7779;49.596;11.070;2022-07-05T10:28:19;29.70;34.40
15359;DHT22;7779;49.596;11.070;2022-07-05T10:30:49;29.60;34.30
15359;DHT22;7779;49.596;11.070;2022-07-05T10:33:19;29.60;34.60
15359;DHT22;7779;49.596;11.070;2022-07-05T10:35:50;29.60;34.70
15359;DHT22;7779;49.596;11.070;2022-07-05T10:38:17;29.60;34.80
15359;DHT22;7779;49.596;11.070;2022-07-05T10:40:47;29.60;34.70
15359;DHT22;7779;49.596;11.070;2022-07-05T10:43:17;29.60;34.40
15359;DHT22;7779;49.596;11.070;2022-07-05T10:45:50;29.60;34.50
15359;DHT22;7779;49.596;11.070;2022-07-05T10:48:18;29.70;34.20
15359;DHT22;7779;49.596;11.070;2022-07-05T10:50:51;29.70;34.10
15359;DHT22;7779;49.596;11.070;2022-07-05T10:53:28;29.60;33.80
15359;DHT22;7779;49.596;11.070;2022-07-05T10:56:14;29.60;33.60
15359;DHT22;7779;49.596;11.070;2022-07-05T10:58:44;29.50;33.80
15359;DHT22;7779;49.596;11.070;2022-07-05T11:06:43;29.40;33.60
15359;DHT22;7779;49.596;11.070;2022-07-05T11:11:40;29.50;34.50
15359;DHT22;7779;49.596;11.070;2022-07-05T11:17:32;29.70;34.40
15359;DHT22;7779;49.596;11.070;2022-07-05T11:20:15;29.90;34.20
15359;DHT22;7779;49.596;11.070;2022-07-05T11:23:02;29.90;33.20
15359;DHT22;7779;49.596;11.070;2022-07-05T11:25:38;30.00;33.30
15359;DHT22;7779;49.596;11.070;2022-07-05T11:28:19;30.00;33.60
15359;DHT22;7779;49.596;11.070;2022-07-05T11:30:58;30.00;33.00
15359;DHT22;7779;49.596;11.070;2022-07-05T11:33:33;30.00;32.70
15359;DHT22;7779;49.596;11.070;2022-07-05T11:36:28;29.90;32.30
15359;DHT22;7779;49.596;11.070;2022-07-05T11:39:15;29.80;31.80
15359;DHT22;7779;49.596;11.070;2022-07-05T11:41:47;29.70;31.80
15359;DHT22;7779;49.596;11.070;2022-07-05T11:44:14;29.60;33.30
15359;DHT22;7779;49.596;11.070;2022-07-05T11:46:42;29.50;32.70
15359;DHT22;7779;49.596;11.070;2022-07-05T11:49:08;29.40;32.80
15359;DHT22;7779;49.596;11.070;2022-07-05T11:51:34;29.40;32.90
15359;DHT22;7779;49.596;11.070;2022-07-05T11:54:01;29.30;33.00
15359;DHT22;7779;49.596;11.070;2022-07-05T11:56:29;29.30;33.00
15359;DHT22;7779;49.596;11.070;2022-07-05T11:58:55;29.40;33.00
15359;DHT22;7779;49.596;11.070;2022-07-05T12:01:21;29.40;32.90
15359;DHT22;7779;49.596;11.070;2022-07-05T12:03:56;29.40;32.90
15359;DHT22;7779;49.596;11.070;2022-07-05T12:06:22;29.50;32.30
15359;DHT22;7779;49.596;11.070;2022-07-05T12:09:02;29.60;32.90
15359;DHT22;7779;49.596;11.070;2022-07-05T12:11:31;29.60;32.40
15359;DHT22;7779;49.596;11.070;2022-07-05T12:14:22;29.70;32.90
15359;DHT22;7779;49.596;11.070;2022-07-05T12:16:50;29.80;32.00
15359;DHT22;7779;49.596;11.070;2022-07-05T12:19:41;29.90;32.60
15359;DHT22;7779;49.596;11.070;2022-07-05T12:22:07;29.90;32.50
15359;DHT22;7779;49.596;11.070;2022-07-05T12:24:34;30.00;32.40
15359;DHT22;7779;49.596;11.070;2022-07-05T12:27:00;30.10;32.10
15359;DHT22;7779;49.596;11.070;2022-07-05T12:29:27;30.20;31.90
15359;DHT22;7779;49.596;11.070;2022-07-05T12:32:00;30.20;31.70
15359;DHT22;7779;49.596;11.070;2022-07-05T12:34:28;30.30;31.40
15359;DHT22;7779;49.596;11.070;2022-07-05T12:36:56;30.30;32.10
15359;DHT22;7779;49.596;11.070;2022-07-05T12:39:23;30.30;31.30
15359;DHT22;7779;49.596;11.070;2022-07-05T12:41:49;30.30;31.10
15359;DHT22;7779;49.596;11.070;2022-07-05T12:44:19;30.30;31.10
15359;DHT22;7779;49.596;11.070;2022-07-05T12:46:46;30.30;30.80
15359;DHT22;7779;49.596;11.070;2022-07-05T12:49:12;30.30;31.00
15359;DHT22;7779;49.596;11.070;2022-07-05T12:51:39;30.20;31.00
15359;DHT22;7779;49.596;11.070;2022-07-05T12:54:08;30.20;30.90
15359;DHT22;7779;49.596;11.070;2022-07-05T12:57:03;30.20;31.00
15359;DHT22;7779;49.596;11.070;2022-07-05T13:00:05;30.20;31.20
15359;DHT22;7779;49.596;11.070;2022-07-05T13:02:40;30.20;31.00
15359;DHT22;7779;49.596;11.070;2022-07-05T13:05:20;30.20;31.00
15359;DHT22;7779;49.596;11.070;2022-07-05T13:07:47;30.20;30.80
15359;DHT22;7779;49.596;11.070;2022-07-05T13:10:25;30.10;30.80
15359;DHT22;7779;49.596;11.070;2022-07-05T13:12:59;30.10;30.40
15359;DHT22;7779;49.596;11.070;2022-07-05T13:15:25;30.20;31.10
15359;DHT22;7779;49.596;11.070;2022-07-05T13:17:51;30.20;31.00
15359;DHT22;7779;49.596;11.070;2022-07-05T13:20:18;30.20;30.70
15359;DHT22;7779;49.596;11.070;2022-07-05T13:22:46;30.20;30.50
15359;DHT22;7779;49.596;11.070;2022-07-05T13:25:13;30.30;30.50
15359;DHT22;7779;49.596;11.070;2022-07-05T13:27:39;30.30;30.30
15359;DHT22;7779;49.596;11.070;2022-07-05T13:30:06;30.30;30.10
15359;DHT22;7779;49.596;11.070;2022-07-05T13:32:33;30.30;30.00
15359;DHT22;7779;49.596;11.070;2022-07-05T13:34:59;30.30;30.30
15359;DHT22;7779;49.596;11.070;2022-07-05T13:37:25;30.20;30.00
15359;DHT22;7779;49.596;11.070;2022-07-05T13:39:51;30.20;30.00
15359;DHT22;7779;49.596;11.070;2022-07-05T13:42:17;30.20;30.00
15359;DHT22;7779;49.596;11.070;2022-07-05T13:44:42;30.20;30.00
15359;DHT22;7779;49.596;11.070;2022-07-05T13:47:08;30.10;29.80
15359;DHT22;7779;49.596;11.070;2022-07-05T13:49:36;30.00;29.80
15359;DHT22;7779;49.596;11.070;2022-07-05T13:52:05;30.00;29.80
15359;DHT22;7779;49.596;11.070;2022-07-05T13:54:32;29.90;29.80
15359;DHT22;7779;49.596;11.070;2022-07-05T13:56:57;29.90;29.90
15359;DHT22;7779;49.596;11.070;2022-07-05T13:59:23;29.80;30.00
15359;DHT22;7779;49.596;11.070;2022-07-05T14:01:49;29.70;30.00
15359;DHT22;7779;49.596;11.070;2022-07-05T14:04:15;29.70;30.00
15359;DHT22;7779;49.596;11.070;2022-07-05T14:06:41;29.70;30.00
15359;DHT22;7779;49.596;11.070;2022-07-05T14:09:06;29.70;30.00
15359;DHT22;7779;49.596;11.070;2022-07-05T14:11:33;29.80;30.10
15359;DHT22;7779;49.596;11.070;2022-07-05T14:13:59;29.80;30.20
15359;DHT22;7779;49.596;11.070;2022-07-05T14:16:25;29.90;30.30
15359;DHT22;7779;49.596;11.070;2022-07-05T14:18:51;29.90;30.30
15359;DHT22;7779;49.596;11.070;2022-07-05T14:21:18;30.00;30.20
15359;DHT22;7779;49.596;11.070;2022-07-05T14:23:44;30.00;30.20
15359;DHT22;7779;49.596;11.070;2022-07-05T14:26:14;30.10;30.70
15359;DHT22;7779;49.596;11.070;2022-07-05T14:28:41;30.20;30.00
15359;DHT22;7779;49.596;11.070;2022-07-05T14:31:07;30.30;30.00
15359;DHT22;7779;49.596;11.070;2022-07-05T14:33:32;30.30;30.00
15359;DHT22;7779;49.596;11.070;2022-07-05T14:35:58;30.40;30.40
15359;DHT22;7779;49.596;11.070;2022-07-05T14:38:24;30.40;29.80
15359;DHT22;7779;49.596;11.070;2022-07-05T14:40:50;30.50;29.70
15359;DHT22;7779;49.596;11.070;2022-07-05T14:43:16;30.50;29.60
15359;DHT22;7779;49.596;11.070;2022-07-05T14:45:41;30.50;29.50
15359;DHT22;7779;49.596;11.070;2022-07-05T14:48:07;30.50;29.50
15359;DHT22;7779;49.596;11.070;2022-07-05T14:50:33;30.50;29.60
15359;DHT22;7779;49.596;11.070;2022-07-05T14:52:59;30.50;29.50
15359;DHT22;7779;49.596;11.070;2022-07-05T14:55:31;30.50;29.50
15359;DHT22;7779;49.596;11.070;2022-07-05T14:57:57;30.40;29.40
15359;DHT22;7779;49.596;11.070;2022-07-05T15:00:23;30.40;29.40
15359;DHT22;7779;49.596;11.070;2022-07-05T15:02:49;30.40;29.30
15359;DHT22;7779;49.596;11.070;2022-07-05T15:05:14;30.40;29.20
15359;DHT22;7779;49.596;11.070;2022-07-05T15:07:40;30.40;28.70
15359;DHT22;7779;49.596;11.070;2022-07-05T15:10:07;30.30;29.00
15359;DHT22;7779;49.596;11.070;2022-07-05T15:12:34;30.30;28.90
15359;DHT22;7779;49.596;11.070;2022-07-05T15:15:00;30.20;28.90
15359;DHT22;7779;49.596;11.070;2022-07-05T15:17:26;30.20;28.90
15359;DHT22;7779;49.596;11.070;2022-07-05T15:19:51;30.10;28.80
15359;DHT22;7779;49.596;11.070;2022-07-05T15:22:17;30.00;28.80
15359;DHT22;7779;49.596;11.070;2022-07-05T15:24:43;29.90;28.80
15359;DHT22;7779;49.596;11.070;2022-07-05T15:27:09;29.90;28.90
15359;DHT22;7779;49.596;11.070;2022-07-05T15:29:36;29.80;28.90
15359;DHT22;7779;49.596;11.070;2022-07-05T15:32:02;29.70;29.00
15359;DHT22;7779;49.596;11.070;2022-07-05T15:34:28;29.60;29.00
15359;DHT22;7779;49.596;11.070;2022-07-05T15:36:54;29.60;29.10
15359;DHT22;7779;49.596;11.070;2022-07-05T15:39:20;29.60;29.20
15359;DHT22;7779;49.596;11.070;2022-07-05T15:41:47;29.60;29.30
15359;DHT22;7779;49.596;11.070;2022-07-05T15:44:13;29.60;29.30
15359;DHT22;7779;49.596;11.070;2022-07-05T15:46:39;29.60;29.40
15359;DHT22;7779;49.596;11.070;2022-07-05T15:49:23;29.60;29.40
15359;DHT22;7779;49.596;11.070;2022-07-05T15:51:49;29.60;29.50
15359;DHT22;7779;49.596;11.070;2022-07-05T15:54:15;29.60;28.70